sensor_id;sensor_type;location;lat;lon;timestamp;P1;durP1;ratioP1;P2;durP2;ratioP2
71183;SDS011;58887;51.980;4.464;2022-12-07T00:01:14;1.43;;;1.30;;
71183;SDS011;58887;51.980;4.464;2022-12-07T00:03:42;1.07;;;0.98;;
71183;SDS011;58887;51.980;4.464;2022-12-07T00:06:11;1.22;;;1.10;;
71183;SDS011;58887;51.980;4.464;2022-12-07T00:08:38;0.67;;;0.61;;
71183;SDS011;58887;51.980;4.464;2022-12-07T00:11:08;0.84;;;0.76;;
71183;SDS011;58887;51.980;4.464;2022-12-07T00:13:39;0.72;;;0.66;;
71183;SDS011;58887;51.980;4.464;2022-12-07T00:16:07;0.53;;;0.47;;
71183;SDS011;58887;51.980;4.464;2022-12-07T00:18:37;1.07;;;0.93;;
71183;SDS011;58887;51.980;4.464;2022-12-07T00:23:29;0.94;;;0.84;;
71183;SDS011;58887;51.980;4.464;2022-12-07T00:25:55;0.63;;;0.56;;
71183;SDS011;58887;51.980;4.464;2022-12-07T00:28:20;0.61;;;0.54;;
71183;SDS011;58887;51.980;4.464;2022-12-07T00:30:46;0.62;;;0.54;;
71183;SDS011;58887;51.980;4.464;2022-12-07T00:33:11;0.63;;;0.55;;
71183;SDS011;58887;51.980;4.464;2022-12-07T00:35:37;0.53;;;0.46;;
71183;SDS011;58887;51.980;4.464;2022-12-07T00:38:02;0.58;;;0.50;;
71183;SDS011;58887;51.980;4.464;2022-12-07T00:40:28;0.53;;;0.44;;
71183;SDS011;58887;51.980;4.464;2022-12-07T00:42:53;0.62;;;0.51;;
71183;SDS011;58887;51.980;4.464;2022-12-07T00:45:18;0.78;;;0.64;;
71183;SDS011;58887;51.980;4.464;2022-12-07T00:47:44;0.38;;;0.31;;
71183;SDS011;58887;51.980;4.464;2022-12-07T00:50:09;0.67;;;0.54;;
71183;SDS011;58887;51.980;4.464;2022-12-07T00:52:35;0.45;;;0.36;;
71183;SDS011;58887;51.980;4.464;2022-12-07T00:55:00;0.43;;;0.35;;
71183;SDS011;58887;51.980;4.464;2022-12-07T00:57:26;0.63;;;0.50;;
71183;SDS011;58887;51.980;4.464;2022-12-07T00:59:51;0.69;;;0.54;;
71183;SDS011;58887;51.980;4.464;2022-12-07T01:02:21;0.55;;;0.43;;
71183;SDS011;58887;51.980;4.464;2022-12-07T01:04:47;0.70;;;0.55;;
71183;SDS011;58887;51.980;4.464;2022-12-07T01:07:12;0.72;;;0.56;;
71183;SDS011;58887;51.980;4.464;2022-12-07T01:09:38;0.95;;;0.74;;
71183;SDS011;58887;51.980;4.464;2022-12-07T01:12:03;0.77;;;0.60;;
71183;SDS011;58887;51.980;4.464;2022-12-07T01:14:29;0.79;;;0.61;;
71183;SDS011;58887;51.980;4.464;2022-12-07T01:16:54;0.88;;;0.69;;
71183;SDS011;58887;51.980;4.464;2022-12-07T01:19:19;0.86;;;0.67;;
71183;SDS011;58887;51.980;4.464;2022-12-07T01:21:45;0.77;;;0.60;;
71183;SDS011;58887;51.980;4.464;2022-12-07T01:24:10;0.90;;;0.71;;
71183;SDS011;58887;51.980;4.464;2022-12-07T01:26:36;0.67;;;0.54;;
71183;SDS011;58887;51.980;4.464;2022-12-07T01:29:02;0.61;;;0.49;;
71183;SDS011;58887;51.980;4.464;2022-12-07T01:31:28;0.63;;;0.51;;
71183;SDS011;58887;51.980;4.464;2022-12-07T01:33:57;0.89;;;0.72;;
71183;SDS011;58887;51.980;4.464;2022-12-07T01:36:28;0.77;;;0.62;;
71183;SDS011;58887;51.980;4.464;2022-12-07T01:38:57;0.63;;;0.51;;
71183;SDS011;58887;51.980;4.464;2022-12-07T01:41:25;0.84;;;0.68;;
71183;SDS011;58887;51.980;4.464;2022-12-07T01:46:49;0.67;;;0.53;;
71183;SDS011;58887;51.980;4.464;2022-12-07T01:49:17;0.73;;;0.58;;
71183;SDS011;58887;51.980;4.464;2022-12-07T01:52:03;0.95;;;0.76;;
71183;SDS011;58887;51.980;4.464;2022-12-07T01:54:33;1.26;;;0.98;;
71183;SDS011;58887;51.980;4.464;2022-12-07T01:57:01;0.68;;;0.52;;
71183;SDS011;58887;51.980;4.464;2022-12-07T01:59:31;1.08;;;0.81;;
71183;SDS011;58887;51.980;4.464;2022-12-07T02:01:56;0.91;;;0.67;;
71183;SDS011;58887;51.980;4.464;2022-12-07T02:04:22;0.96;;;0.69;;
71183;SDS011;58887;51.980;4.464;2022-12-07T02:06:48;0.93;;;0.65;;
71183;SDS011;58887;51.980;4.464;2022-12-07T02:09:16;1.00;;;0.70;;
71183;SDS011;58887;51.980;4.464;2022-12-07T02:11:42;1.27;;;0.88;;
71183;SDS011;58887;51.980;4.464;2022-12-07T02:14:08;1.04;;;0.72;;
71183;SDS011;58887;51.980;4.464;2022-12-07T02:16:38;1.33;;;0.91;;
71183;SDS011;58887;51.980;4.464;2022-12-07T02:25:04;1.29;;;0.89;;
71183;SDS011;58887;51.980;4.464;2022-12-07T02:30:40;0.81;;;0.56;;
71183;SDS011;58887;51.980;4.464;2022-12-07T02:33:14;0.76;;;0.52;;
71183;SDS011;58887;51.980;4.464;2022-12-07T02:35:51;1.44;;;0.99;;
71183;SDS011;58887;51.980;4.464;2022-12-07T02:41:05;1.26;;;0.87;;
71183;SDS011;58887;51.980;4.464;2022-12-07T02:43:42;1.31;;;0.89;;
71183;SDS011;58887;51.980;4.464;2022-12-07T02:46:13;1.43;;;0.97;;
71183;SDS011;58887;51.980;4.464;2022-12-07T02:48:45;1.01;;;0.69;;
71183;SDS011;58887;51.980;4.464;2022-12-07T02:51:12;0.88;;;0.61;;
71183;SDS011;58887;51.980;4.464;2022-12-07T02:53:39;1.00;;;0.69;;
71183;SDS011;58887;51.980;4.464;2022-12-07T03:01:26;1.01;;;0.70;;
71183;SDS011;58887;51.980;4.464;2022-12-07T03:07:13;1.13;;;0.80;;
71183;SDS011;58887;51.980;4.464;2022-12-07T03:13:05;1.44;;;0.98;;
71183;SDS011;58887;51.980;4.464;2022-12-07T03:18:24;1.52;;;1.01;;
71183;SDS011;58887;51.980;4.464;2022-12-07T03:20:55;1.56;;;1.04;;
71183;SDS011;58887;51.980;4.464;2022-12-07T03:23:27;1.31;;;0.87;;
71183;SDS011;58887;51.980;4.464;2022-12-07T03:25:58;1.36;;;0.90;;
71183;SDS011;58887;51.980;4.464;2022-12-07T03:28:31;0.94;;;0.62;;
71183;SDS011;58887;51.980;4.464;2022-12-07T03:31:02;1.47;;;0.96;;
71183;SDS011;58887;51.980;4.464;2022-12-07T03:33:41;1.26;;;0.83;;
71183;SDS011;58887;51.980;4.464;2022-12-07T03:36:40;1.59;;;1.03;;
71183;SDS011;58887;51.980;4.464;2022-12-07T03:39:15;1.69;;;1.09;;
71183;SDS011;58887;51.980;4.464;2022-12-07T03:41:49;1.21;;;0.77;;
71183;SDS011;58887;51.980;4.464;2022-12-07T03:44:17;1.28;;;0.81;;
71183;SDS011;58887;51.980;4.464;2022-12-07T03:49:53;1.57;;;0.99;;
71183;SDS011;58887;51.980;4.464;2022-12-07T03:52:47;1.47;;;0.91;;
71183;SDS011;58887;51.980;4.464;2022-12-07T03:55:27;1.25;;;0.78;;
71183;SDS011;58887;51.980;4.464;2022-12-07T03:58:05;1.24;;;0.77;;
71183;SDS011;58887;51.980;4.464;2022-12-07T04:00:35;1.13;;;0.71;;
71183;SDS011;58887;51.980;4.464;2022-12-07T04:03:01;1.22;;;0.76;;
71183;SDS011;58887;51.980;4.464;2022-12-07T04:05:26;1.29;;;0.80;;
71183;SDS011;58887;51.980;4.464;2022-12-07T04:07:52;1.17;;;0.73;;
71183;SDS011;58887;51.980;4.464;2022-12-07T04:10:18;1.27;;;0.79;;
71183;SDS011;58887;51.980;4.464;2022-12-07T04:12:43;1.30;;;0.81;;
71183;SDS011;58887;51.980;4.464;2022-12-07T04:15:09;1.39;;;0.86;;
71183;SDS011;58887;51.980;4.464;2022-12-07T04:17:35;1.06;;;0.65;;
71183;SDS011;58887;51.980;4.464;2022-12-07T04:20:01;1.60;;;0.98;;
71183;SDS011;58887;51.980;4.464;2022-12-07T04:22:26;1.20;;;0.74;;
71183;SDS011;58887;51.980;4.464;2022-12-07T04:24:52;1.59;;;0.99;;
71183;SDS011;58887;51.980;4.464;2022-12-07T04:27:17;1.18;;;0.74;;
71183;SDS011;58887;51.980;4.464;2022-12-07T04:29:43;1.75;;;1.10;;
71183;SDS011;58887;51.980;4.464;2022-12-07T04:32:08;1.69;;;1.07;;
71183;SDS011;58887;51.980;4.464;2022-12-07T04:34:33;1.99;;;1.28;;
71183;SDS011;58887;51.980;4.464;2022-12-07T04:36:59;1.84;;;1.22;;
71183;SDS011;58887;51.980;4.464;2022-12-07T04:39:25;2.09;;;1.42;;
71183;SDS011;58887;51.980;4.464;2022-12-07T04:41:55;1.49;;;1.03;;
71183;SDS011;58887;51.980;4.464;2022-12-07T04:44:21;0.97;;;0.67;;
71183;SDS011;58887;51.980;4.464;2022-12-07T04:46:48;1.04;;;0.73;;
71183;SDS011;58887;51.980;4.464;2022-12-07T04:49:14;1.08;;;0.76;;
71183;SDS011;58887;51.980;4.464;2022-12-07T04:51:40;1.09;;;0.75;;
71183;SDS011;58887;51.980;4.464;2022-12-07T04:54:06;1.23;;;0.85;;
71183;SDS011;58887;51.980;4.464;2022-12-07T04:56:32;1.24;;;0.87;;
71183;SDS011;58887;51.980;4.464;2022-12-07T04:58:59;1.03;;;0.72;;
71183;SDS011;58887;51.980;4.464;2022-12-07T05:01:25;1.17;;;0.84;;
71183;SDS011;58887;51.980;4.464;2022-12-07T05:03:50;0.94;;;0.69;;
71183;SDS011;58887;51.980;4.464;2022-12-07T05:06:16;1.10;;;0.82;;
71183;SDS011;58887;51.980;4.464;2022-12-07T05:08:42;0.76;;;0.57;;
71183;SDS011;58887;51.980;4.464;2022-12-07T05:11:08;0.99;;;0.73;;
71183;SDS011;58887;51.980;4.464;2022-12-07T05:13:55;0.85;;;0.64;;
71183;SDS011;58887;51.980;4.464;2022-12-07T05:16:22;0.78;;;0.60;;
71183;SDS011;58887;51.980;4.464;2022-12-07T05:18:47;0.72;;;0.55;;
71183;SDS011;58887;51.980;4.464;2022-12-07T05:21:13;1.02;;;0.77;;
71183;SDS011;58887;51.980;4.464;2022-12-07T05:23:38;0.82;;;0.62;;
71183;SDS011;58887;51.980;4.464;2022-12-07T05:26:04;1.06;;;0.80;;
71183;SDS011;58887;51.980;4.464;2022-12-07T05:28:29;1.40;;;1.05;;
71183;SDS011;58887;51.980;4.464;2022-12-07T05:30:54;1.28;;;0.95;;
71183;SDS011;58887;51.980;4.464;2022-12-07T05:33:20;0.96;;;0.71;;
71183;SDS011;58887;51.980;4.464;2022-12-07T05:35:45;1.29;;;0.97;;
71183;SDS011;58887;51.980;4.464;2022-12-07T05:38:11;1.76;;;1.32;;
71183;SDS011;58887;51.980;4.464;2022-12-07T05:40:36;0.95;;;0.70;;
71183;SDS011;58887;51.980;4.464;2022-12-07T05:43:02;1.09;;;0.81;;
71183;SDS011;58887;51.980;4.464;2022-12-07T05:45:27;1.03;;;0.75;;
71183;SDS011;58887;51.980;4.464;2022-12-07T05:47:53;1.09;;;0.80;;
71183;SDS011;58887;51.980;4.464;2022-12-07T05:50:18;1.49;;;1.09;;
71183;SDS011;58887;51.980;4.464;2022-12-07T05:52:44;1.64;;;1.22;;
71183;SDS011;58887;51.980;4.464;2022-12-07T05:55:09;0.93;;;0.69;;
71183;SDS011;58887;51.980;4.464;2022-12-07T05:57:35;1.06;;;0.79;;
71183;SDS011;58887;51.980;4.464;2022-12-07T06:00:00;1.09;;;0.82;;
71183;SDS011;58887;51.980;4.464;2022-12-07T06:02:26;0.95;;;0.72;;
71183;SDS011;58887;51.980;4.464;2022-12-07T06:04:52;1.10;;;0.83;;
71183;SDS011;58887;51.980;4.464;2022-12-07T06:07:17;1.19;;;0.89;;
71183;SDS011;58887;51.980;4.464;2022-12-07T06:09:42;0.89;;;0.67;;
71183;SDS011;58887;51.980;4.464;2022-12-07T06:12:11;0.97;;;0.74;;
71183;SDS011;58887;51.980;4.464;2022-12-07T06:14:56;0.97;;;0.75;;
71183;SDS011;58887;51.980;4.464;2022-12-07T06:17:22;0.92;;;0.70;;
71183;SDS011;58887;51.980;4.464;2022-12-07T06:19:48;1.16;;;0.88;;
71183;SDS011;58887;51.980;4.464;2022-12-07T06:22:13;1.07;;;0.83;;
71183;SDS011;58887;51.980;4.464;2022-12-07T06:24:39;1.41;;;1.11;;
71183;SDS011;58887;51.980;4.464;2022-12-07T06:27:05;1.19;;;0.95;;
71183;SDS011;58887;51.980;4.464;2022-12-07T06:29:31;1.19;;;0.96;;
71183;SDS011;58887;51.980;4.464;2022-12-07T06:31:56;0.96;;;0.77;;
71183;SDS011;58887;51.980;4.464;2022-12-07T06:34:23;1.09;;;0.87;;
71183;SDS011;58887;51.980;4.464;2022-12-07T06:36:50;1.68;;;1.34;;
71183;SDS011;58887;51.980;4.464;2022-12-07T06:39:19;1.54;;;1.25;;
71183;SDS011;58887;51.980;4.464;2022-12-07T06:41:45;1.93;;;1.60;;
71183;SDS011;58887;51.980;4.464;2022-12-07T06:44:11;1.73;;;1.47;;
71183;SDS011;58887;51.980;4.464;2022-12-07T06:46:37;2.04;;;1.80;;
71183;SDS011;58887;51.980;4.464;2022-12-07T06:49:02;2.06;;;1.85;;
71183;SDS011;58887;51.980;4.464;2022-12-07T06:51:29;1.80;;;1.63;;
71183;SDS011;58887;51.980;4.464;2022-12-07T06:53:55;1.67;;;1.54;;
71183;SDS011;58887;51.980;4.464;2022-12-07T06:56:21;1.52;;;1.43;;
71183;SDS011;58887;51.980;4.464;2022-12-07T06:58:48;2.00;;;1.90;;
71183;SDS011;58887;51.980;4.464;2022-12-07T07:01:15;2.43;;;2.36;;
71183;SDS011;58887;51.980;4.464;2022-12-07T07:03:42;1.69;;;1.64;;
71183;SDS011;58887;51.980;4.464;2022-12-07T07:06:09;1.89;;;1.83;;
71183;SDS011;58887;51.980;4.464;2022-12-07T07:08:35;2.03;;;1.93;;
71183;SDS011;58887;51.980;4.464;2022-12-07T07:11:02;1.87;;;1.78;;
71183;SDS011;58887;51.980;4.464;2022-12-07T07:13:27;1.78;;;1.70;;
71183;SDS011;58887;51.980;4.464;2022-12-07T07:15:53;1.64;;;1.58;;
71183;SDS011;58887;51.980;4.464;2022-12-07T07:18:19;1.94;;;1.84;;
71183;SDS011;58887;51.980;4.464;2022-12-07T07:20:45;1.78;;;1.69;;
71183;SDS011;58887;51.980;4.464;2022-12-07T07:23:10;1.74;;;1.65;;
71183;SDS011;58887;51.980;4.464;2022-12-07T07:25:36;1.59;;;1.51;;
71183;SDS011;58887;51.980;4.464;2022-12-07T07:28:01;1.62;;;1.53;;
71183;SDS011;58887;51.980;4.464;2022-12-07T07:30:27;1.76;;;1.64;;
71183;SDS011;58887;51.980;4.464;2022-12-07T07:32:57;1.86;;;1.74;;
71183;SDS011;58887;51.980;4.464;2022-12-07T07:35:26;2.16;;;2.03;;
71183;SDS011;58887;51.980;4.464;2022-12-07T07:37:53;1.46;;;1.38;;
71183;SDS011;58887;51.980;4.464;2022-12-07T07:40:19;1.12;;;1.04;;
71183;SDS011;58887;51.980;4.464;2022-12-07T07:42:46;0.96;;;0.87;;
71183;SDS011;58887;51.980;4.464;2022-12-07T07:45:13;1.11;;;0.97;;
71183;SDS011;58887;51.980;4.464;2022-12-07T07:47:39;1.11;;;0.95;;
71183;SDS011;58887;51.980;4.464;2022-12-07T07:50:04;1.45;;;1.28;;
71183;SDS011;58887;51.980;4.464;2022-12-07T07:52:31;1.24;;;1.09;;
71183;SDS011;58887;51.980;4.464;2022-12-07T07:54:56;1.33;;;1.16;;
71183;SDS011;58887;51.980;4.464;2022-12-07T07:57:22;1.17;;;0.99;;
71183;SDS011;58887;51.980;4.464;2022-12-07T07:59:47;0.90;;;0.76;;
71183;SDS011;58887;51.980;4.464;2022-12-07T08:02:13;0.95;;;0.80;;
71183;SDS011;58887;51.980;4.464;2022-12-07T08:04:43;0.96;;;0.80;;
71183;SDS011;58887;51.980;4.464;2022-12-07T08:07:09;1.32;;;1.09;;
71183;SDS011;58887;51.980;4.464;2022-12-07T08:09:36;1.32;;;1.07;;
71183;SDS011;58887;51.980;4.464;2022-12-07T08:12:01;1.20;;;0.98;;
71183;SDS011;58887;51.980;4.464;2022-12-07T08:14:27;0.93;;;0.77;;
71183;SDS011;58887;51.980;4.464;2022-12-07T08:16:53;1.01;;;0.83;;
71183;SDS011;58887;51.980;4.464;2022-12-07T08:19:19;1.24;;;0.99;;
71183;SDS011;58887;51.980;4.464;2022-12-07T08:21:45;1.55;;;1.22;;
71183;SDS011;58887;51.980;4.464;2022-12-07T08:24:11;1.13;;;0.91;;
71183;SDS011;58887;51.980;4.464;2022-12-07T08:26:36;1.52;;;1.26;;
71183;SDS011;58887;51.980;4.464;2022-12-07T08:29:02;1.37;;;1.15;;
71183;SDS011;58887;51.980;4.464;2022-12-07T08:31:28;1.13;;;0.96;;
71183;SDS011;58887;51.980;4.464;2022-12-07T08:33:53;1.19;;;1.02;;
71183;SDS011;58887;51.980;4.464;2022-12-07T08:36:19;1.09;;;0.94;;
71183;SDS011;58887;51.980;4.464;2022-12-07T08:38:45;1.02;;;0.90;;
71183;SDS011;58887;51.980;4.464;2022-12-07T08:41:10;1.39;;;1.22;;
71183;SDS011;58887;51.980;4.464;2022-12-07T08:43:36;1.35;;;1.16;;
71183;SDS011;58887;51.980;4.464;2022-12-07T08:46:13;1.95;;;1.66;;
71183;SDS011;58887;51.980;4.464;2022-12-07T08:48:56;1.77;;;1.47;;
71183;SDS011;58887;51.980;4.464;2022-12-07T08:51:28;1.93;;;1.65;;
71183;SDS011;58887;51.980;4.464;2022-12-07T08:53:54;2.18;;;1.90;;
71183;SDS011;58887;51.980;4.464;2022-12-07T08:56:24;2.38;;;2.11;;
71183;SDS011;58887;51.980;4.464;2022-12-07T08:58:50;1.95;;;1.79;;
71183;SDS011;58887;51.980;4.464;2022-12-07T09:01:16;2.22;;;2.03;;
71183;SDS011;58887;51.980;4.464;2022-12-07T09:03:42;2.42;;;2.21;;
71183;SDS011;58887;51.980;4.464;2022-12-07T09:06:07;2.02;;;1.87;;
71183;SDS011;58887;51.980;4.464;2022-12-07T09:08:34;2.15;;;1.99;;
71183;SDS011;58887;51.980;4.464;2022-12-07T09:11:08;2.06;;;1.91;;
71183;SDS011;58887;51.980;4.464;2022-12-07T09:13:33;1.88;;;1.79;;
71183;SDS011;58887;51.980;4.464;2022-12-07T09:15:59;2.24;;;2.13;;
71183;SDS011;58887;51.980;4.464;2022-12-07T09:18:24;2.13;;;2.01;;
71183;SDS011;58887;51.980;4.464;2022-12-07T09:20:50;2.22;;;2.10;;
71183;SDS011;58887;51.980;4.464;2022-12-07T09:23:16;2.08;;;2.02;;
71183;SDS011;58887;51.980;4.464;2022-12-07T09:25:42;1.96;;;1.90;;
71183;SDS011;58887;51.980;4.464;2022-12-07T09:28:08;1.93;;;1.86;;
71183;SDS011;58887;51.980;4.464;2022-12-07T09:30:33;2.10;;;2.00;;
71183;SDS011;58887;51.980;4.464;2022-12-07T09:32:59;1.93;;;1.85;;
71183;SDS011;58887;51.980;4.464;2022-12-07T09:35:25;1.74;;;1.68;;
71183;SDS011;58887;51.980;4.464;2022-12-07T09:37:51;1.75;;;1.70;;
71183;SDS011;58887;51.980;4.464;2022-12-07T09:40:17;1.70;;;1.64;;
71183;SDS011;58887;51.980;4.464;2022-12-07T09:42:48;1.75;;;1.69;;
71183;SDS011;58887;51.980;4.464;2022-12-07T09:45:24;2.19;;;2.10;;
71183;SDS011;58887;51.980;4.464;2022-12-07T09:47:56;2.39;;;2.27;;
71183;SDS011;58887;51.980;4.464;2022-12-07T09:50:24;2.34;;;2.27;;
71183;SDS011;58887;51.980;4.464;2022-12-07T09:52:52;2.42;;;2.37;;
71183;SDS011;58887;51.980;4.464;2022-12-07T09:55:28;2.45;;;2.42;;
71183;SDS011;58887;51.980;4.464;2022-12-07T09:57:55;2.70;;;2.66;;
71183;SDS011;58887;51.980;4.464;2022-12-07T10:00:23;2.24;;;2.21;;
71183;SDS011;58887;51.980;4.464;2022-12-07T10:03:00;2.02;;;1.97;;
71183;SDS011;58887;51.980;4.464;2022-12-07T10:05:33;2.07;;;1.99;;
71183;SDS011;58887;51.980;4.464;2022-12-07T10:08:03;2.03;;;1.93;;
71183;SDS011;58887;51.980;4.464;2022-12-07T10:10:30;1.64;;;1.54;;
71183;SDS011;58887;51.980;4.464;2022-12-07T10:13:01;1.43;;;1.33;;
71183;SDS011;58887;51.980;4.464;2022-12-07T10:15:46;1.39;;;1.28;;
71183;SDS011;58887;51.980;4.464;2022-12-07T10:18:16;1.63;;;1.51;;
71183;SDS011;58887;51.980;4.464;2022-12-07T10:20:50;1.66;;;1.55;;
71183;SDS011;58887;51.980;4.464;2022-12-07T10:23:29;2.08;;;1.96;;
71183;SDS011;58887;51.980;4.464;2022-12-07T10:25:55;2.20;;;2.08;;
71183;SDS011;58887;51.980;4.464;2022-12-07T10:28:21;2.09;;;1.98;;
71183;SDS011;58887;51.980;4.464;2022-12-07T10:30:51;1.95;;;1.86;;
71183;SDS011;58887;51.980;4.464;2022-12-07T10:33:31;1.87;;;1.78;;
71183;SDS011;58887;51.980;4.464;2022-12-07T10:36:21;2.14;;;2.01;;
71183;SDS011;58887;51.980;4.464;2022-12-07T10:38:52;1.88;;;1.77;;
71183;SDS011;58887;51.980;4.464;2022-12-07T10:41:24;1.90;;;1.78;;
71183;SDS011;58887;51.980;4.464;2022-12-07T10:43:51;1.65;;;1.52;;
71183;SDS011;58887;51.980;4.464;2022-12-07T10:46:32;1.77;;;1.63;;
71183;SDS011;58887;51.980;4.464;2022-12-07T10:52:20;1.76;;;1.67;;
71183;SDS011;58887;51.980;4.464;2022-12-07T10:55:05;1.72;;;1.63;;
71183;SDS011;58887;51.980;4.464;2022-12-07T11:00:58;0.88;;;0.81;;
71183;SDS011;58887;51.980;4.464;2022-12-07T11:03:53;0.87;;;0.78;;
71183;SDS011;58887;51.980;4.464;2022-12-07T11:06:34;0.81;;;0.72;;
71183;SDS011;58887;51.980;4.464;2022-12-07T11:14:50;0.75;;;0.62;;
71183;SDS011;58887;51.980;4.464;2022-12-07T11:18:09;0.80;;;0.64;;
71183;SDS011;58887;51.980;4.464;2022-12-07T11:20:19;0.92;;;0.73;;
71183;SDS011;58887;51.980;4.464;2022-12-07T11:23:12;0.91;;;0.71;;
71183;SDS011;58887;51.980;4.464;2022-12-07T11:26:07;0.74;;;0.57;;
71183;SDS011;58887;51.980;4.464;2022-12-07T11:29:24;0.50;;;0.38;;
71183;SDS011;58887;51.980;4.464;2022-12-07T11:34:52;0.89;;;0.66;;
71183;SDS011;58887;51.980;4.464;2022-12-07T11:37:43;1.00;;;0.72;;
71183;SDS011;58887;51.980;4.464;2022-12-07T11:40:46;0.89;;;0.63;;
71183;SDS011;58887;51.980;4.464;2022-12-07T11:45:55;0.43;;;0.30;;
71183;SDS011;58887;51.980;4.464;2022-12-07T11:48:35;0.71;;;0.49;;
71183;SDS011;58887;51.980;4.464;2022-12-07T11:51:34;0.81;;;0.57;;
71183;SDS011;58887;51.980;4.464;2022-12-07T11:54:09;0.89;;;0.62;;
71183;SDS011;58887;51.980;4.464;2022-12-07T11:56:41;0.96;;;0.66;;
71183;SDS011;58887;51.980;4.464;2022-12-07T11:59:11;0.60;;;0.41;;
71183;SDS011;58887;51.980;4.464;2022-12-07T12:04:27;1.08;;;0.72;;
71183;SDS011;58887;51.980;4.464;2022-12-07T12:06:57;0.95;;;0.63;;
71183;SDS011;58887;51.980;4.464;2022-12-07T12:09:26;1.22;;;0.81;;
71183;SDS011;58887;51.980;4.464;2022-12-07T12:17:56;1.18;;;0.79;;
71183;SDS011;58887;51.980;4.464;2022-12-07T12:20:40;1.40;;;0.95;;
71183;SDS011;58887;51.980;4.464;2022-12-07T12:23:18;1.73;;;1.18;;
71183;SDS011;58887;51.980;4.464;2022-12-07T12:25:54;1.39;;;0.94;;
71183;SDS011;58887;51.980;4.464;2022-12-07T12:28:31;1.38;;;0.93;;
71183;SDS011;58887;51.980;4.464;2022-12-07T12:31:14;1.44;;;0.97;;
71183;SDS011;58887;51.980;4.464;2022-12-07T12:33:55;1.44;;;0.98;;
71183;SDS011;58887;51.980;4.464;2022-12-07T12:36:26;1.46;;;0.98;;
71183;SDS011;58887;51.980;4.464;2022-12-07T12:46:50;1.22;;;0.83;;
71183;SDS011;58887;51.980;4.464;2022-12-07T12:51:47;1.47;;;1.02;;
71183;SDS011;58887;51.980;4.464;2022-12-07T12:54:31;1.39;;;0.97;;
71183;SDS011;58887;51.980;4.464;2022-12-07T13:02:21;0.95;;;0.67;;
71183;SDS011;58887;51.980;4.464;2022-12-07T13:04:53;1.36;;;0.95;;
71183;SDS011;58887;51.980;4.464;2022-12-07T13:15:35;1.12;;;0.77;;
71183;SDS011;58887;51.980;4.464;2022-12-07T13:18:24;0.67;;;0.46;;
71183;SDS011;58887;51.980;4.464;2022-12-07T13:26:22;2.60;;;1.87;;
71183;SDS011;58887;51.980;4.464;2022-12-07T13:36:55;0.65;;;0.50;;
71183;SDS011;58887;51.980;4.464;2022-12-07T13:39:25;0.43;;;0.33;;
71183;SDS011;58887;51.980;4.464;2022-12-07T13:41:55;0.69;;;0.51;;
71183;SDS011;58887;51.980;4.464;2022-12-07T13:44:34;0.55;;;0.40;;
71183;SDS011;58887;51.980;4.464;2022-12-07T13:47:03;0.64;;;0.47;;
71183;SDS011;58887;51.980;4.464;2022-12-07T13:49:49;0.52;;;0.39;;
71183;SDS011;58887;51.980;4.464;2022-12-07T13:52:27;0.83;;;0.61;;
71183;SDS011;58887;51.980;4.464;2022-12-07T13:55:05;0.76;;;0.56;;
71183;SDS011;58887;51.980;4.464;2022-12-07T13:57:39;0.65;;;0.48;;
71183;SDS011;58887;51.980;4.464;2022-12-07T14:00:14;0.98;;;0.71;;
71183;SDS011;58887;51.980;4.464;2022-12-07T14:02:58;1.04;;;0.77;;
71183;SDS011;58887;51.980;4.464;2022-12-07T14:05:44;1.06;;;0.80;;
71183;SDS011;58887;51.980;4.464;2022-12-07T14:10:39;0.68;;;0.52;;
71183;SDS011;58887;51.980;4.464;2022-12-07T14:15:55;1.03;;;0.80;;
71183;SDS011;58887;51.980;4.464;2022-12-07T14:18:28;0.73;;;0.58;;
71183;SDS011;58887;51.980;4.464;2022-12-07T14:21:14;0.79;;;0.62;;
71183;SDS011;58887;51.980;4.464;2022-12-07T14:23:44;0.92;;;0.71;;
71183;SDS011;58887;51.980;4.464;2022-12-07T14:26:20;0.78;;;0.60;;
71183;SDS011;58887;51.980;4.464;2022-12-07T14:28:46;0.64;;;0.49;;
71183;SDS011;58887;51.980;4.464;2022-12-07T14:31:13;0.85;;;0.65;;
71183;SDS011;58887;51.980;4.464;2022-12-07T14:33:40;0.70;;;0.52;;
71183;SDS011;58887;51.980;4.464;2022-12-07T14:36:13;0.91;;;0.68;;
71183;SDS011;58887;51.980;4.464;2022-12-07T14:38:40;0.81;;;0.61;;
71183;SDS011;58887;51.980;4.464;2022-12-07T14:41:06;1.07;;;0.81;;
71183;SDS011;58887;51.980;4.464;2022-12-07T14:43:58;0.81;;;0.61;;
71183;SDS011;58887;51.980;4.464;2022-12-07T14:46:23;1.17;;;0.88;;
71183;SDS011;58887;51.980;4.464;2022-12-07T14:48:49;0.99;;;0.74;;
71183;SDS011;58887;51.980;4.464;2022-12-07T14:51:15;1.38;;;1.03;;
71183;SDS011;58887;51.980;4.464;2022-12-07T14:53:42;1.55;;;1.16;;
71183;SDS011;58887;51.980;4.464;2022-12-07T14:56:15;1.12;;;0.86;;
71183;SDS011;58887;51.980;4.464;2022-12-07T14:58:41;0.87;;;0.67;;
71183;SDS011;58887;51.980;4.464;2022-12-07T15:01:06;0.93;;;0.72;;
71183;SDS011;58887;51.980;4.464;2022-12-07T15:03:32;0.92;;;0.71;;
71183;SDS011;58887;51.980;4.464;2022-12-07T15:05:59;0.96;;;0.73;;
71183;SDS011;58887;51.980;4.464;2022-12-07T15:08:26;1.01;;;0.75;;
71183;SDS011;58887;51.980;4.464;2022-12-07T15:10:52;1.26;;;0.93;;
71183;SDS011;58887;51.980;4.464;2022-12-07T15:13:17;1.17;;;0.84;;
71183;SDS011;58887;51.980;4.464;2022-12-07T15:16:13;1.23;;;0.87;;
71183;SDS011;58887;51.980;4.464;2022-12-07T15:18:44;1.37;;;0.96;;
71183;SDS011;58887;51.980;4.464;2022-12-07T15:21:12;1.32;;;0.93;;
71183;SDS011;58887;51.980;4.464;2022-12-07T15:23:40;1.40;;;0.99;;
71183;SDS011;58887;51.980;4.464;2022-12-07T15:26:05;1.26;;;0.90;;
71183;SDS011;58887;51.980;4.464;2022-12-07T15:28:31;1.52;;;1.08;;
71183;SDS011;58887;51.980;4.464;2022-12-07T15:30:56;1.35;;;0.98;;
71183;SDS011;58887;51.980;4.464;2022-12-07T15:33:22;1.89;;;1.38;;
71183;SDS011;58887;51.980;4.464;2022-12-07T15:35:47;2.02;;;1.47;;
71183;SDS011;58887;51.980;4.464;2022-12-07T15:38:13;2.78;;;2.07;;
71183;SDS011;58887;51.980;4.464;2022-12-07T15:40:38;2.54;;;1.99;;
71183;SDS011;58887;51.980;4.464;2022-12-07T15:43:04;1.91;;;1.55;;
71183;SDS011;58887;51.980;4.464;2022-12-07T15:45:30;1.48;;;1.22;;
71183;SDS011;58887;51.980;4.464;2022-12-07T15:47:55;1.30;;;1.07;;
71183;SDS011;58887;51.980;4.464;2022-12-07T15:50:21;1.01;;;0.82;;
71183;SDS011;58887;51.980;4.464;2022-12-07T15:52:47;1.29;;;1.06;;
71183;SDS011;58887;51.980;4.464;2022-12-07T15:55:13;1.35;;;1.09;;
71183;SDS011;58887;51.980;4.464;2022-12-07T15:57:39;1.24;;;0.97;;
71183;SDS011;58887;51.980;4.464;2022-12-07T16:00:05;1.31;;;1.03;;
71183;SDS011;58887;51.980;4.464;2022-12-07T16:02:33;1.64;;;1.29;;
71183;SDS011;58887;51.980;4.464;2022-12-07T16:04:58;1.88;;;1.51;;
71183;SDS011;58887;51.980;4.464;2022-12-07T16:07:24;1.78;;;1.49;;
71183;SDS011;58887;51.980;4.464;2022-12-07T16:09:49;1.64;;;1.38;;
71183;SDS011;58887;51.980;4.464;2022-12-07T16:12:15;1.40;;;1.17;;
71183;SDS011;58887;51.980;4.464;2022-12-07T16:14:41;0.95;;;0.79;;
71183;SDS011;58887;51.980;4.464;2022-12-07T16:17:08;1.07;;;0.88;;
71183;SDS011;58887;51.980;4.464;2022-12-07T16:19:34;0.97;;;0.79;;
71183;SDS011;58887;51.980;4.464;2022-12-07T16:22:01;1.00;;;0.82;;
71183;SDS011;58887;51.980;4.464;2022-12-07T16:24:26;0.77;;;0.64;;
71183;SDS011;58887;51.980;4.464;2022-12-07T16:26:52;0.60;;;0.49;;
71183;SDS011;58887;51.980;4.464;2022-12-07T16:29:19;0.76;;;0.62;;
71183;SDS011;58887;51.980;4.464;2022-12-07T16:31:45;0.89;;;0.73;;
71183;SDS011;58887;51.980;4.464;2022-12-07T16:34:11;0.81;;;0.66;;
71183;SDS011;58887;51.980;4.464;2022-12-07T16:36:37;0.77;;;0.63;;
71183;SDS011;58887;51.980;4.464;2022-12-07T16:39:03;0.95;;;0.77;;
71183;SDS011;58887;51.980;4.464;2022-12-07T16:41:29;0.73;;;0.58;;
71183;SDS011;58887;51.980;4.464;2022-12-07T16:43:55;0.74;;;0.59;;
71183;SDS011;58887;51.980;4.464;2022-12-07T16:46:21;1.04;;;0.83;;